createdAt,value
2022-08-10T00:01:51.437Z,8.23
2022-08-10T00:04:21.485Z,10.83
2022-08-10T00:06:49.567Z,7.50
2022-08-10T00:09:16.709Z,7.60
2022-08-10T00:11:43.909Z,8.30
2022-08-10T00:14:11.062Z,8.57
2022-08-10T00:16:38.324Z,7.00
2022-08-10T00:19:05.438Z,7.13
2022-08-10T00:21:32.645Z,8.23
2022-08-10T00:23:59.859Z,9.77
2022-08-10T00:26:27.018Z,7.10
2022-08-10T00:29:14.185Z,6.80
2022-08-10T00:31:57.865Z,6.97
2022-08-10T00:34:26.879Z,7.20
2022-08-10T00:36:54.027Z,7.03
2022-08-10T00:39:21.230Z,6.17
2022-08-10T00:42:07.171Z,6.10
2022-08-10T00:44:39.431Z,6.87
2022-08-10T00:47:07.365Z,6.40
2022-08-10T00:49:48.388Z,6.70
2022-08-10T00:52:17.096Z,4.73
2022-08-10T00:54:45.054Z,6.33
2022-08-10T00:57:12.991Z,5.63
2022-08-10T00:59:59.455Z,5.83
2022-08-10T01:02:32.431Z,4.93
2022-08-10T01:05:02.459Z,7.23
2022-08-10T01:07:29.981Z,6.43
2022-08-10T01:10:09.345Z,6.67
2022-08-10T01:12:44.824Z,6.57
2022-08-10T01:15:12.020Z,5.17
2022-08-10T01:17:51.693Z,7.83
2022-08-10T01:20:30.301Z,4.87
2022-08-10T01:22:58.414Z,4.37
2022-08-10T01:26:12.329Z,7.00
2022-08-10T01:28:31.980Z,5.57
2022-08-10T01:31:01.530Z,4.23
2022-08-10T01:34:02.092Z,4.93
2022-08-10T01:36:31.891Z,5.67
2022-08-10T01:39:00.895Z,4.77
2022-08-10T01:41:54.474Z,5.50
2022-08-10T01:44:29.079Z,8.10
2022-08-10T01:47:22.266Z,5.90
2022-08-10T01:49:50.643Z,5.93
2022-08-10T01:52:19.371Z,5.80
2022-08-10T01:54:47.252Z,7.53
2022-08-10T01:57:17.277Z,6.77
2022-08-10T02:00:00.603Z,5.97
2022-08-10T02:02:30.826Z,6.17
2022-08-10T02:04:58.822Z,7.17
2022-08-10T02:07:27.684Z,5.90
2022-08-10T02:09:57.150Z,6.53
2022-08-10T02:12:30.966Z,7.87
2022-08-10T02:15:00.692Z,6.33
2022-08-10T02:17:59.356Z,7.80
2022-08-10T02:20:17.913Z,7.30
2022-08-10T02:22:46.325Z,7.40
2022-08-10T02:25:40.044Z,6.13
2022-08-10T02:28:02.910Z,7.23
2022-08-10T02:30:30.739Z,6.17
2022-08-10T02:32:58.807Z,8.03
2022-08-10T02:35:29.147Z,7.70
2022-08-10T02:38:16.104Z,6.80
2022-08-10T02:45:01.928Z,7.03
2022-08-10T02:45:23.749Z,7.27
2022-08-10T02:46:42.519Z,7.17
2022-08-10T02:49:12.612Z,7.83
2022-08-10T02:52:07.475Z,7.50
2022-08-10T02:54:37.912Z,9.13
2022-08-10T02:57:20.092Z,9.63
2022-08-10T02:59:49.976Z,10.53
2022-08-10T03:02:20.645Z,8.43
2022-08-10T03:04:56.120Z,7.50
2022-08-10T03:07:42.819Z,9.10
2022-08-10T03:10:14.646Z,9.73
2022-08-10T03:12:43.219Z,8.00
2022-08-10T03:15:15.849Z,8.13
2022-08-10T03:17:57.930Z,8.23
2022-08-10T03:20:38.273Z,9.07
2022-08-10T03:23:08.045Z,7.83
2022-08-10T03:25:35.672Z,8.47
2022-08-10T03:28:03.019Z,10.60
2022-08-10T03:30:33.454Z,8.83
2022-08-10T03:33:02.001Z,9.50
2022-08-10T03:35:29.789Z,10.63
2022-08-10T03:37:59.790Z,10.73
2022-08-10T03:40:44.840Z,12.10
2022-08-10T03:43:16.466Z,8.63
2022-08-10T03:45:54.246Z,7.80
2022-08-10T03:48:23.862Z,9.40
2022-08-10T03:50:52.862Z,8.77
2022-08-10T03:53:24.940Z,8.30
2022-08-10T03:56:28.333Z,8.37
2022-08-10T03:58:55.618Z,9.93
2022-08-10T04:02:46.582Z,11.13
2022-08-10T04:04:12.958Z,10.87
2022-08-10T04:06:41.836Z,10.83
2022-08-10T04:09:10.097Z,12.67
2022-08-10T04:11:37.326Z,11.27
2022-08-10T04:14:07.947Z,9.33
2022-08-10T04:16:55.119Z,10.80
2022-08-10T04:19:23.187Z,14.13
2022-08-10T04:21:55.547Z,10.73
2022-08-10T04:24:26.939Z,10.23
2022-08-10T04:26:58.586Z,9.50
2022-08-10T04:29:25.819Z,10.07
2022-08-10T04:31:53.885Z,9.13
2022-08-10T04:34:21.373Z,9.07
2022-08-10T04:36:50.528Z,10.30
2022-08-10T04:39:18.371Z,9.83
2022-08-10T04:41:47.469Z,8.60
2022-08-10T04:44:15.045Z,10.97
2022-08-10T04:46:55.287Z,10.37
2022-08-10T04:49:54.017Z,8.87
2022-08-10T04:52:11.991Z,9.23
2022-08-10T04:54:39.213Z,8.33
2022-08-10T04:57:06.549Z,9.67
2022-08-10T04:59:33.699Z,10.23
2022-08-10T05:02:22.434Z,10.83
2022-08-10T05:04:48.000Z,11.13
2022-08-10T05:07:18.164Z,9.47
2022-08-10T05:10:03.402Z,9.40
2022-08-10T05:12:35.623Z,10.00
2022-08-10T05:15:04.683Z,9.00
2022-08-10T05:17:31.882Z,8.23
2022-08-10T05:20:04.120Z,6.87
2022-08-10T05:22:33.825Z,7.43
2022-08-10T05:25:01.061Z,6.30
2022-08-10T05:27:28.233Z,7.87
2022-08-10T05:30:02.162Z,7.77
2022-08-10T05:32:30.478Z,6.93
2022-08-10T05:34:57.832Z,8.43
2022-08-10T05:38:09.086Z,7.47
2022-08-10T05:40:13.055Z,7.37
2022-08-10T05:42:40.478Z,6.50
2022-08-10T05:45:10.234Z,7.67
2022-08-10T05:48:54.222Z,8.60
2022-08-10T05:50:26.884Z,8.53
2022-08-10T05:52:54.194Z,6.80
2022-08-10T05:55:21.882Z,6.50
2022-08-10T05:57:49.068Z,6.67
2022-08-10T06:00:36.843Z,7.30
2022-08-10T06:03:08.598Z,9.33
2022-08-10T06:05:39.863Z,8.80
2022-08-10T06:08:13.301Z,8.17
2022-08-10T06:12:21.912Z,7.53
2022-08-10T06:13:59.613Z,7.03
2022-08-10T06:16:35.263Z,8.07
2022-08-10T06:19:03.721Z,8.13
2022-08-10T06:21:30.944Z,9.07
2022-08-10T06:23:59.993Z,8.67
2022-08-10T06:26:27.106Z,8.43
2022-08-10T06:29:04.222Z,7.00
2022-08-10T06:31:47.021Z,6.27
2022-08-10T06:34:16.904Z,7.40
2022-08-10T06:36:45.158Z,7.37
2022-08-10T06:39:32.323Z,6.63
2022-08-10T06:42:16.370Z,7.50
2022-08-10T06:44:53.731Z,6.00
2022-08-10T06:47:23.769Z,6.77
2022-08-10T06:49:53.124Z,6.40
2022-08-10T06:52:20.833Z,7.57
2022-08-10T06:54:48.743Z,7.17
2022-08-10T06:57:18.449Z,5.57
2022-08-10T06:59:48.838Z,7.33
2022-08-10T07:02:20.306Z,8.87
2022-08-10T07:04:49.444Z,8.13
2022-08-10T07:07:19.092Z,7.10
2022-08-10T07:09:46.665Z,6.97
2022-08-10T07:12:15.514Z,6.60
2022-08-10T07:14:45.579Z,6.00
2022-08-10T07:17:15.166Z,8.47
2022-08-10T07:19:50.022Z,8.57
2022-08-10T07:23:55.078Z,7.63
2022-08-10T07:25:08.243Z,6.47
2022-08-10T07:27:58.832Z,6.93
2022-08-10T07:30:23.023Z,6.23
2022-08-10T07:32:51.700Z,7.57
2022-08-10T07:35:21.968Z,7.67
2022-08-10T07:37:50.477Z,7.17
2022-08-10T07:40:18.842Z,6.63
2022-08-10T07:42:47.899Z,8.57
2022-08-10T07:45:15.270Z,8.03
2022-08-10T07:47:53.956Z,7.40
2022-08-10T07:50:23.025Z,7.47
2022-08-10T07:52:50.596Z,6.77
2022-08-10T07:55:19.090Z,7.97
2022-08-10T07:58:06.701Z,6.73
2022-08-10T08:00:34.578Z,7.90
2022-08-10T08:03:03.013Z,7.67
2022-08-10T08:05:59.376Z,6.03
2022-08-10T08:08:19.052Z,7.73
2022-08-10T08:10:47.609Z,6.83
2022-08-10T08:13:15.604Z,7.90
2022-08-10T08:16:15.889Z,6.77
2022-08-10T08:18:32.254Z,9.20
2022-08-10T08:21:16.113Z,5.90
2022-08-10T08:24:14.787Z,8.90
2022-08-10T08:26:39.748Z,7.57
2022-08-10T08:29:09.357Z,7.33
2022-08-10T08:31:36.713Z,7.80
2022-08-10T08:34:21.751Z,9.17
2022-08-10T08:36:50.030Z,7.63
2022-08-10T08:39:17.333Z,6.40
2022-08-10T08:41:59.982Z,7.00
2022-08-10T08:44:50.272Z,8.40
2022-08-10T08:48:04.961Z,7.73
2022-08-10T08:50:15.482Z,7.77
2022-08-10T08:52:48.671Z,6.40
2022-08-10T08:56:03.091Z,6.37
2022-08-10T08:58:41.098Z,6.30
2022-08-10T09:01:38.299Z,7.03
2022-08-10T09:04:20.027Z,7.57
2022-08-10T09:07:59.114Z,7.40
2022-08-10T09:10:15.420Z,6.37
2022-08-10T09:12:52.733Z,4.77
2022-08-10T09:15:39.488Z,6.70
2022-08-10T09:18:24.653Z,7.20
2022-08-10T09:20:59.355Z,6.07
2022-08-10T09:24:04.262Z,7.00
2022-08-10T09:26:21.036Z,6.17
2022-08-10T09:28:52.461Z,5.57
2022-08-10T09:32:56.004Z,5.63
2022-08-10T09:36:20.308Z,6.40
2022-08-10T09:38:01.176Z,7.35
2022-08-10T09:40:59.526Z,7.13
2022-08-10T09:43:46.996Z,8.17
2022-08-10T09:46:27.275Z,7.97
2022-08-10T09:49:10.730Z,8.10
2022-08-10T09:51:45.746Z,7.00
2022-08-10T09:54:16.707Z,7.70
2022-08-10T09:56:46.624Z,6.47
2022-08-10T09:59:27.069Z,7.10
2022-08-10T10:02:08.392Z,6.78
2022-08-10T10:04:38.289Z,7.50
2022-08-10T10:07:06.956Z,7.55
2022-08-10T10:09:48.545Z,7.45
2022-08-10T10:12:18.772Z,8.98
2022-08-10T10:15:25.325Z,5.97
2022-08-10T10:18:11.550Z,6.65
2022-08-10T10:20:54.077Z,6.72
2022-08-10T10:23:30.078Z,6.60
2022-08-10T10:26:04.963Z,6.93
2022-08-10T10:29:11.402Z,5.75
2022-08-10T10:31:22.827Z,7.30
2022-08-10T10:33:55.049Z,6.78
2022-08-10T10:36:22.828Z,6.43
2022-08-10T10:38:50.626Z,6.55
2022-08-10T10:41:30.810Z,6.43
2022-08-10T10:44:21.753Z,6.13
2022-08-10T10:46:58.959Z,6.55
2022-08-10T10:49:34.007Z,4.30
2022-08-10T10:52:05.577Z,5.22
2022-08-10T10:54:45.686Z,6.05
2022-08-10T10:57:12.793Z,6.82
2022-08-10T10:59:58.650Z,5.13
2022-08-10T11:02:28.787Z,6.38
2022-08-10T11:05:04.856Z,6.00
2022-08-10T11:07:45.922Z,6.80
2022-08-10T11:10:33.221Z,6.22
2022-08-10T11:14:24.651Z,5.85
2022-08-10T11:16:20.975Z,7.55
2022-08-10T11:18:57.518Z,7.25
2022-08-10T11:21:28.308Z,5.70
2022-08-10T11:24:48.930Z,7.57
2022-08-10T11:27:09.735Z,6.68
2022-08-10T11:29:52.436Z,5.10
2022-08-10T11:32:20.396Z,6.65
2022-08-10T11:35:11.673Z,6.05
2022-08-10T11:38:30.351Z,5.13
2022-08-10T11:40:50.367Z,6.10
2022-08-10T11:43:24.168Z,6.70
2022-08-10T11:45:56.983Z,5.00
2022-08-10T11:48:52.833Z,6.85
2022-08-10T11:51:20.099Z,5.90
2022-08-10T11:54:06.050Z,6.22
2022-08-10T11:56:53.029Z,6.20
2022-08-10T11:59:41.532Z,6.80
2022-08-10T12:02:10.044Z,7.03
2022-08-10T12:04:39.772Z,5.80
2022-08-10T12:08:54.872Z,5.43
2022-08-10T12:10:09.738Z,5.32
2022-08-10T12:12:45.420Z,6.15
2022-08-10T12:15:16.754Z,5.95
2022-08-10T12:17:46.732Z,6.50
2022-08-10T12:20:22.177Z,6.03
2022-08-10T12:22:51.285Z,3.92
2022-08-10T12:25:55.970Z,6.30
2022-08-10T12:28:50.573Z,5.45
2022-08-10T12:31:21.999Z,5.65
2022-08-10T12:34:01.867Z,5.95
2022-08-10T12:36:34.449Z,6.40
2022-08-10T12:39:13.101Z,6.28
2022-08-10T12:41:44.367Z,5.97
2022-08-10T12:44:15.507Z,6.15
2022-08-10T12:46:51.178Z,5.63
2022-08-10T12:49:31.415Z,7.85
2022-08-10T12:52:10.348Z,6.05
2022-08-10T12:54:38.069Z,6.50
2022-08-10T12:57:05.251Z,7.22
2022-08-10T12:59:32.965Z,7.20
2022-08-10T13:02:12.716Z,5.03
2022-08-10T13:04:41.035Z,5.65
2022-08-10T13:07:08.700Z,4.68
2022-08-10T13:09:55.976Z,5.35
2022-08-10T13:12:36.970Z,5.82
2022-08-10T13:15:45.265Z,5.15
2022-08-10T13:18:05.706Z,4.57
2022-08-10T13:20:45.792Z,7.10
2022-08-10T13:23:14.919Z,6.00
2022-08-10T13:25:45.444Z,7.68
2022-08-10T13:28:35.424Z,6.20
2022-08-10T13:31:06.167Z,6.18
2022-08-10T13:34:39.289Z,7.93
2022-08-10T13:36:22.930Z,6.97
2022-08-10T13:38:50.869Z,4.97
2022-08-10T13:41:19.112Z,6.28
2022-08-10T13:43:53.020Z,6.18
2022-08-10T13:46:22.949Z,6.05
2022-08-10T13:48:53.573Z,5.97
2022-08-10T13:51:56.850Z,7.00
2022-08-10T13:54:13.743Z,6.32
2022-08-10T13:56:42.699Z,5.47
2022-08-10T13:59:11.563Z,5.75
2022-08-10T14:01:48.133Z,4.70
2022-08-10T14:04:15.435Z,6.95
2022-08-10T14:06:42.968Z,5.35
2022-08-10T14:09:13.655Z,5.93
2022-08-10T14:11:42.578Z,5.82
2022-08-10T14:14:14.568Z,5.03
2022-08-10T14:16:42.901Z,5.28
2022-08-10T14:19:13.253Z,5.95
2022-08-10T14:21:41.124Z,6.80
2022-08-10T14:24:19.798Z,6.47
2022-08-10T14:26:47.831Z,6.28
2022-08-10T14:29:19.853Z,5.72
2022-08-10T14:32:01.046Z,6.68
2022-08-10T14:34:59.238Z,5.70
2022-08-10T14:37:24.193Z,6.00
2022-08-10T14:39:55.888Z,8.02
2022-08-10T14:42:27.712Z,5.35
2022-08-10T14:44:57.938Z,4.47
2022-08-10T14:47:53.745Z,6.20
2022-08-10T14:50:32.090Z,6.22
2022-08-10T14:53:10.952Z,6.18
2022-08-10T14:55:59.242Z,5.30
2022-08-10T14:58:59.296Z,5.60
2022-08-10T15:02:00.000Z,6.95
2022-08-10T15:04:24.183Z,4.82
2022-08-10T15:06:55.796Z,5.47
2022-08-10T15:09:25.287Z,5.32
2022-08-10T15:12:13.613Z,4.93
2022-08-10T15:14:46.130Z,6.07
2022-08-10T15:17:16.331Z,5.57
2022-08-10T15:20:03.512Z,7.18
2022-08-10T15:22:38.332Z,5.40
2022-08-10T15:25:17.990Z,4.95
2022-08-10T15:27:54.498Z,3.45
2022-08-10T15:30:29.767Z,5.22
2022-08-10T15:33:21.470Z,4.28
2022-08-10T15:36:24.452Z,5.97
2022-08-10T15:38:58.521Z,4.60
2022-08-10T15:41:58.916Z,5.53
2022-08-10T15:44:23.687Z,5.03
2022-08-10T15:46:52.149Z,5.78
2022-08-10T15:49:45.186Z,5.32
2022-08-10T15:52:39.665Z,6.40
2022-08-10T15:55:42.364Z,5.72
2022-08-10T15:58:09.869Z,5.97
2022-08-10T16:00:39.006Z,3.92
2022-08-10T16:03:14.761Z,5.53
2022-08-10T16:06:02.441Z,4.78
2022-08-10T16:08:37.150Z,5.90
2022-08-10T16:11:27.311Z,4.70
2022-08-10T16:14:24.077Z,5.15
2022-08-10T16:16:54.192Z,5.78
2022-08-10T16:19:25.269Z,4.78
2022-08-10T16:21:56.002Z,4.30
2022-08-10T16:24:24.986Z,3.75
2022-08-10T16:26:54.136Z,5.63
2022-08-10T16:29:23.307Z,4.63
2022-08-10T16:31:54.825Z,5.05
2022-08-10T16:34:22.735Z,5.78
2022-08-10T16:36:55.111Z,4.43
2022-08-10T16:39:58.262Z,5.22
2022-08-10T16:42:21.495Z,4.70
2022-08-10T16:44:53.180Z,5.03
2022-08-10T16:47:27.376Z,5.32
2022-08-10T16:49:56.915Z,4.75
2022-08-10T16:52:29.733Z,4.45
2022-08-10T16:55:23.541Z,5.18
2022-08-10T16:57:52.403Z,5.00
2022-08-10T17:00:22.390Z,4.38
2022-08-10T17:02:51.347Z,4.95
2022-08-10T17:06:09.555Z,5.82
2022-08-10T17:08:09.420Z,3.45
2022-08-10T17:10:37.399Z,3.70
2022-08-10T17:13:06.526Z,2.70
2022-08-10T17:15:34.230Z,4.78
2022-08-10T17:18:03.511Z,3.95
2022-08-10T17:20:32.842Z,3.50
2022-08-10T17:23:03.333Z,3.47
2022-08-10T17:25:48.371Z,3.85
2022-08-10T17:28:34.659Z,3.75
2022-08-10T17:31:18.917Z,4.40
2022-08-10T17:33:56.749Z,6.10
2022-08-10T17:36:25.176Z,7.47
2022-08-10T17:38:52.959Z,6.70
2022-08-10T17:41:24.172Z,5.57
2022-08-10T17:44:01.861Z,5.40
2022-08-10T17:46:32.409Z,5.70
2022-08-10T17:49:00.281Z,7.40
2022-08-10T17:51:30.857Z,6.22
2022-08-10T17:53:59.135Z,6.80
2022-08-10T17:56:26.602Z,5.82
2022-08-10T17:58:58.658Z,7.57
2022-08-10T18:01:41.679Z,6.30
2022-08-10T18:04:15.076Z,6.90
2022-08-10T18:06:43.298Z,7.07
2022-08-10T18:09:12.551Z,6.03
2022-08-10T18:11:44.230Z,5.55
2022-08-10T18:14:11.831Z,6.07
2022-08-10T18:16:41.686Z,6.63
2022-08-10T18:19:11.516Z,6.30
2022-08-10T18:21:39.574Z,6.30
2022-08-10T18:24:16.139Z,7.60
2022-08-10T18:26:45.254Z,8.07
2022-08-10T18:29:18.576Z,8.50
2022-08-10T18:31:47.331Z,7.65
2022-08-10T18:34:18.188Z,7.77
2022-08-10T18:36:46.003Z,6.95
2022-08-10T18:39:14.896Z,6.53
2022-08-10T18:42:00.744Z,9.25
2022-08-10T18:44:34.473Z,8.07
2022-08-10T18:47:03.501Z,7.13
2022-08-10T18:49:41.222Z,6.57
2022-08-10T18:52:09.376Z,8.17
2022-08-10T18:54:44.429Z,7.33
2022-08-10T18:57:31.323Z,8.07
2022-08-10T19:00:07.800Z,7.63
2022-08-10T19:02:54.783Z,8.37
2022-08-10T19:05:41.487Z,10.23
2022-08-10T19:08:30.922Z,8.80
2022-08-10T19:11:04.699Z,9.43
2022-08-10T19:13:34.612Z,6.73
2022-08-10T19:16:08.104Z,8.83
2022-08-10T19:18:38.655Z,8.43
2022-08-10T19:21:38.207Z,8.13
2022-08-10T19:24:26.004Z,8.93
2022-08-10T19:26:57.465Z,7.87
2022-08-10T19:30:12.153Z,7.27
2022-08-10T19:32:57.734Z,7.77
2022-08-10T19:36:04.047Z,7.67
2022-08-10T19:38:35.344Z,7.53
2022-08-10T19:41:15.004Z,9.47
2022-08-10T19:44:00.284Z,7.47
2022-08-10T19:46:40.086Z,7.33
2022-08-10T19:49:24.711Z,8.43
2022-08-10T19:52:10.662Z,7.30
2022-08-10T19:54:45.101Z,8.97
2022-08-10T19:57:34.447Z,8.67
2022-08-10T20:00:19.269Z,8.00
2022-08-10T20:03:23.590Z,9.10
2022-08-10T20:06:18.148Z,9.60
2022-08-10T20:09:06.583Z,11.10
2022-08-10T20:11:45.034Z,9.20
2022-08-10T20:14:26.015Z,9.07
2022-08-10T20:16:56.073Z,8.37
2022-08-10T20:19:52.610Z,7.77
2022-08-10T20:22:16.820Z,8.00
2022-08-10T20:25:01.658Z,8.37
2022-08-10T20:28:00.434Z,8.70
2022-08-10T20:30:16.416Z,8.53
2022-08-10T20:32:59.625Z,9.23
2022-08-10T20:35:45.715Z,10.47
2022-08-10T20:38:15.903Z,9.60
2022-08-10T20:40:45.776Z,10.00
2022-08-10T20:43:21.956Z,8.87
2022-08-10T20:46:09.614Z,8.43
2022-08-10T20:48:39.226Z,7.97
2022-08-10T20:51:08.817Z,8.30
2022-08-10T20:53:41.492Z,9.90
2022-08-10T20:56:21.326Z,9.93
2022-08-10T20:59:10.139Z,8.80
2022-08-10T21:02:06.768Z,9.43
2022-08-10T21:04:57.717Z,8.13
2022-08-10T21:07:57.737Z,8.73
2022-08-10T21:10:45.707Z,8.57
2022-08-10T21:13:31.354Z,8.73
2022-08-10T21:16:01.857Z,8.13
2022-08-10T21:18:51.693Z,10.57
2022-08-10T21:21:19.270Z,9.73
2022-08-10T21:24:07.156Z,9.90
2022-08-10T21:26:45.558Z,9.60
2022-08-10T21:29:37.964Z,9.37
2022-08-10T21:32:12.095Z,11.00
2022-08-10T21:34:55.283Z,10.20
2022-08-10T21:37:40.158Z,9.87
2022-08-10T21:40:35.413Z,10.93
2022-08-10T21:43:44.121Z,10.47
2022-08-10T21:46:30.514Z,11.37
2022-08-10T21:49:22.800Z,12.03
2022-08-10T21:52:21.053Z,9.67
2022-08-10T21:55:09.639Z,10.87
2022-08-10T21:58:15.201Z,9.70
2022-08-10T22:01:39.145Z,9.37
2022-08-10T22:04:25.486Z,8.67
2022-08-10T22:07:11.447Z,11.17
2022-08-10T22:10:02.500Z,8.90
2022-08-10T22:12:52.047Z,9.43
2022-08-10T22:16:03.781Z,8.47
2022-08-10T22:19:01.304Z,8.33
2022-08-10T22:22:07.680Z,8.67
2022-08-10T22:25:41.213Z,7.73
2022-08-10T22:28:33.543Z,7.27
2022-08-10T22:31:32.915Z,7.20
2022-08-10T22:34:37.732Z,7.50
2022-08-10T22:37:32.418Z,7.57
2022-08-10T22:40:26.744Z,8.03
2022-08-10T22:43:14.046Z,7.83
2022-08-10T22:46:20.750Z,7.93
2022-08-10T22:49:01.038Z,6.10
2022-08-10T22:51:37.317Z,8.37
2022-08-10T22:54:43.223Z,7.13
2022-08-10T22:57:33.294Z,7.87
2022-08-10T23:00:09.688Z,10.40
2022-08-10T23:02:38.234Z,7.50
2022-08-10T23:05:08.680Z,6.77
2022-08-10T23:07:38.166Z,6.03
2022-08-10T23:10:07.855Z,5.80
2022-08-10T23:12:37.993Z,6.87
2022-08-10T23:15:25.393Z,6.63
2022-08-10T23:18:15.540Z,7.27
2022-08-10T23:20:43.648Z,8.50
2022-08-10T23:23:13.130Z,8.23
2022-08-10T23:25:56.609Z,6.37
2022-08-10T23:28:38.576Z,9.67
2022-08-10T23:31:13.135Z,7.00
2022-08-10T23:33:41.727Z,5.87
2022-08-10T23:36:34.320Z,6.07
2022-08-10T23:39:25.394Z,5.73
2022-08-10T23:41:52.817Z,5.27
2022-08-10T23:44:21.177Z,9.60
2022-08-10T23:46:48.737Z,6.90
2022-08-10T23:49:16.017Z,5.53
2022-08-10T23:51:55.904Z,6.13
2022-08-10T23:54:24.821Z,7.57
2022-08-10T23:56:53.106Z,6.47
2022-08-10T23:59:22.034Z,6.00
